createdAt,value
2022-10-30T00:00:35.882Z,100580.53
2022-10-30T00:03:02.908Z,100575.25
2022-10-30T00:05:29.655Z,100577.94
2022-10-30T00:07:57.266Z,100583.38
2022-10-30T00:10:24.968Z,100574.50
2022-10-30T00:12:51.592Z,100580.81
2022-10-30T00:15:18.047Z,100582.06
2022-10-30T00:17:44.380Z,100580.81
2022-10-30T00:20:11.043Z,100574.41
2022-10-30T00:22:37.565Z,100570.78
2022-10-30T00:25:04.772Z,100576.06
2022-10-30T00:27:31.385Z,100570.56
2022-10-30T00:29:57.751Z,100573.41
2022-10-30T00:32:24.281Z,100567.03
2022-10-30T00:34:50.899Z,100567.97
2022-10-30T00:37:17.284Z,100569.78
2022-10-30T00:39:43.697Z,100565.06
2022-10-30T00:42:14.704Z,100558.84
2022-10-30T00:44:44.205Z,100555.00
2022-10-30T00:47:31.783Z,100565.75
2022-10-30T00:50:13.846Z,100561.28
2022-10-30T00:52:48.009Z,100557.28
2022-10-30T00:55:19.383Z,100565.00
2022-10-30T00:57:47.094Z,100557.06
2022-10-30T01:00:14.613Z,100559.84
2022-10-30T01:02:43.990Z,100556.63
2022-10-30T01:05:15.648Z,100555.44
2022-10-30T01:07:42.029Z,100552.81
2022-10-30T01:10:09.709Z,100554.56
2022-10-30T01:12:36.586Z,100554.75
2022-10-30T01:15:03.359Z,100552.00
2022-10-30T01:17:41.790Z,100547.88
2022-10-30T01:20:14.121Z,100549.94
2022-10-30T01:22:59.631Z,100536.81
2022-10-30T01:26:06.475Z,100556.19
2022-10-30T01:28:49.983Z,100557.75
2022-10-30T01:31:35.154Z,100551.53
2022-10-30T01:34:15.792Z,100555.44
2022-10-30T01:37:07.359Z,100553.56
2022-10-30T01:39:37.145Z,100556.88
2022-10-30T01:42:40.928Z,100553.97
2022-10-30T01:45:07.971Z,100553.69
2022-10-30T01:47:51.291Z,100541.09
2022-10-30T01:50:37.783Z,100551.72
2022-10-30T01:53:33.085Z,100550.66
2022-10-30T01:56:17.679Z,100554.31
2022-10-30T01:59:05.832Z,100555.66
2022-10-30T02:01:35.508Z,100561.00
2022-10-30T02:06:35.860Z,100551.56
2022-10-30T02:09:02.249Z,100546.28
2022-10-30T02:11:29.584Z,100548.03
2022-10-30T02:13:58.581Z,100536.97
2022-10-30T02:16:24.984Z,100541.00
2022-10-30T02:18:51.381Z,100540.25
2022-10-30T02:21:17.787Z,100543.94
2022-10-30T02:23:44.268Z,100536.69
2022-10-30T02:26:10.632Z,100541.94
2022-10-30T02:28:37.204Z,100541.88
2022-10-30T02:31:03.733Z,100543.78
2022-10-30T02:33:30.107Z,100544.66
2022-10-30T02:35:56.427Z,100544.47
2022-10-30T02:38:22.802Z,100546.16
2022-10-30T02:40:49.141Z,100547.84
2022-10-30T02:43:15.521Z,100539.84
2022-10-30T02:45:41.841Z,100550.31
2022-10-30T02:48:08.187Z,100548.53
2022-10-30T02:50:34.540Z,100553.16
2022-10-30T02:53:01.400Z,100552.13
2022-10-30T02:55:28.008Z,100548.97
2022-10-30T02:57:54.476Z,100554.56
2022-10-30T03:00:20.955Z,100554.09
2022-10-30T03:02:47.382Z,100549.38
2022-10-30T03:05:13.890Z,100548.53
2022-10-30T03:07:40.229Z,100555.66
2022-10-30T03:10:06.895Z,100552.19
2022-10-30T03:12:33.251Z,100554.09
2022-10-30T03:14:59.579Z,100552.34
2022-10-30T03:17:25.963Z,100544.47
2022-10-30T03:19:52.352Z,100546.22
2022-10-30T03:22:19.810Z,100550.53
2022-10-30T03:24:46.157Z,100545.22
2022-10-30T03:27:12.574Z,100539.44
2022-10-30T03:29:38.964Z,100540.25
2022-10-30T03:32:09.637Z,100546.59
2022-10-30T03:34:36.157Z,100542.97
2022-10-30T03:37:02.617Z,100549.16
2022-10-30T03:39:28.962Z,100549.28
2022-10-30T03:41:55.411Z,100544.25
2022-10-30T03:44:21.781Z,100547.53
2022-10-30T03:46:48.148Z,100547.53
2022-10-30T03:49:14.477Z,100557.47
2022-10-30T03:51:40.821Z,100563.78
2022-10-30T03:54:07.200Z,100564.03
2022-10-30T03:56:33.593Z,100564.22
2022-10-30T03:59:00.023Z,100561.16
2022-10-30T04:01:26.468Z,100553.31
2022-10-30T04:03:52.869Z,100554.56
2022-10-30T04:06:19.258Z,100555.06
2022-10-30T04:08:45.773Z,100564.53
2022-10-30T04:11:12.255Z,100561.16
2022-10-30T04:13:38.999Z,100564.47
2022-10-30T04:16:06.716Z,100562.56
2022-10-30T04:18:33.152Z,100559.59
2022-10-30T04:21:00.530Z,100561.13
2022-10-30T04:23:26.877Z,100551.94
2022-10-30T04:25:53.247Z,100547.06
2022-10-30T04:28:21.190Z,100554.69
2022-10-30T04:30:47.987Z,100562.41
2022-10-30T04:33:14.755Z,100560.56
2022-10-30T04:35:41.976Z,100559.69
2022-10-30T04:38:11.053Z,100562.19
2022-10-30T04:40:39.273Z,100558.66
2022-10-30T04:43:06.273Z,100559.06
2022-10-30T04:45:32.987Z,100555.88
2022-10-30T04:48:04.737Z,100561.06
2022-10-30T04:50:32.340Z,100559.31
2022-10-30T04:53:05.591Z,100557.47
2022-10-30T04:55:32.712Z,100554.84
2022-10-30T04:58:00.873Z,100555.06
2022-10-30T05:00:27.571Z,100540.09
2022-10-30T05:02:54.027Z,100543.38
2022-10-30T05:05:20.743Z,100543.19
2022-10-30T05:07:47.096Z,100536.88
2022-10-30T05:10:18.319Z,100546.78
2022-10-30T05:12:45.693Z,100548.41
2022-10-30T05:15:13.428Z,100542.16
2022-10-30T05:17:40.399Z,100548.56
2022-10-30T05:20:07.875Z,100540.47
2022-10-30T05:22:34.243Z,100543.88
2022-10-30T05:25:00.658Z,100541.31
2022-10-30T05:27:27.036Z,100545.25
2022-10-30T05:29:53.355Z,100537.00
2022-10-30T05:32:19.719Z,100543.84
2022-10-30T05:34:46.091Z,100543.94
2022-10-30T05:37:12.438Z,100541.28
2022-10-30T05:39:38.826Z,100554.38
2022-10-30T05:42:07.555Z,100549.19
2022-10-30T05:44:59.134Z,100547.81
2022-10-30T05:47:22.517Z,100551.25
2022-10-30T05:49:48.855Z,100551.31
2022-10-30T05:52:15.308Z,100552.09
2022-10-30T05:54:41.656Z,100540.50
2022-10-30T05:57:07.994Z,100544.13
2022-10-30T05:59:34.422Z,100546.84
2022-10-30T06:02:00.944Z,100548.56
2022-10-30T06:04:27.329Z,100551.56
2022-10-30T06:06:53.790Z,100556.03
2022-10-30T06:09:20.117Z,100552.06
2022-10-30T06:11:46.561Z,100551.00
2022-10-30T06:14:12.896Z,100562.47
2022-10-30T06:16:39.454Z,100560.63
2022-10-30T06:19:05.812Z,100557.19
2022-10-30T06:21:32.140Z,100551.84
2022-10-30T06:23:58.953Z,100560.69
2022-10-30T06:26:25.416Z,100548.69
2022-10-30T06:28:51.808Z,100558.00
2022-10-30T06:31:18.251Z,100557.03
2022-10-30T06:33:44.683Z,100551.69
2022-10-30T06:36:11.017Z,100563.28
2022-10-30T06:38:37.406Z,100561.75
2022-10-30T06:41:03.978Z,100565.34
2022-10-30T06:43:30.461Z,100562.41
2022-10-30T06:45:59.950Z,100568.63
2022-10-30T06:48:26.349Z,100567.63
2022-10-30T06:51:00.371Z,100564.22
2022-10-30T06:53:26.777Z,100569.69
2022-10-30T06:56:00.966Z,100569.44
2022-10-30T06:58:28.393Z,100574.75
2022-10-30T07:00:55.150Z,100582.38
2022-10-30T07:03:21.941Z,100577.31
2022-10-30T07:05:48.386Z,100579.88
2022-10-30T07:08:14.721Z,100580.91
2022-10-30T07:10:41.119Z,100580.59
2022-10-30T07:13:08.604Z,100582.31
2022-10-30T07:15:35.815Z,100583.22
2022-10-30T07:18:03.734Z,100585.69
2022-10-30T07:20:33.335Z,100600.78
2022-10-30T07:23:00.647Z,100592.13
2022-10-30T07:25:27.402Z,100596.25
2022-10-30T07:27:55.136Z,100588.59
2022-10-30T07:32:59.850Z,100580.75
2022-10-30T07:35:27.453Z,100588.06
2022-10-30T07:37:54.093Z,100587.66
2022-10-30T07:40:20.629Z,100586.28
2022-10-30T07:42:47.443Z,100592.31
2022-10-30T07:45:14.092Z,100593.03
2022-10-30T07:47:42.099Z,100588.78
2022-10-30T07:50:09.661Z,100592.97
2022-10-30T07:52:36.280Z,100594.84
2022-10-30T07:55:03.311Z,100598.31
2022-10-30T07:57:42.936Z,100599.94
2022-10-30T08:00:12.934Z,100604.19
2022-10-30T08:02:39.710Z,100600.47
2022-10-30T08:05:06.866Z,100604.88
2022-10-30T08:07:35.013Z,100602.03
2022-10-30T08:10:01.463Z,100595.66
2022-10-30T08:12:28.248Z,100605.38
2022-10-30T08:14:54.880Z,100605.38
2022-10-30T08:17:21.557Z,100608.75
2022-10-30T08:19:47.997Z,100602.13
2022-10-30T08:22:14.737Z,100606.00
2022-10-30T08:24:41.189Z,100601.13
2022-10-30T08:27:07.918Z,100599.72
2022-10-30T08:29:34.844Z,100590.28
2022-10-30T08:32:01.499Z,100593.66
2022-10-30T08:34:28.031Z,100593.69
2022-10-30T08:36:54.430Z,100598.66
2022-10-30T08:39:20.985Z,100592.75
2022-10-30T08:41:47.430Z,100594.19
2022-10-30T08:44:14.238Z,100595.63
2022-10-30T08:46:40.588Z,100583.94
2022-10-30T08:49:06.942Z,100580.28
2022-10-30T08:51:34.871Z,100583.00
2022-10-30T08:54:01.625Z,100590.22
2022-10-30T08:56:28.115Z,100591.00
2022-10-30T08:58:54.611Z,100597.63
2022-10-30T09:01:21.085Z,100583.06
2022-10-30T09:03:47.802Z,100582.94
2022-10-30T09:06:14.173Z,100574.38
2022-10-30T09:08:40.540Z,100570.03
2022-10-30T09:11:06.973Z,100578.34
2022-10-30T09:13:33.510Z,100571.81
2022-10-30T09:16:01.426Z,100575.94
2022-10-30T09:18:28.116Z,100571.50
2022-10-30T09:20:54.453Z,100573.75
2022-10-30T09:23:20.942Z,100586.22
2022-10-30T09:25:47.440Z,100584.75
2022-10-30T09:28:13.859Z,100589.16
2022-10-30T09:30:40.190Z,100589.00
2022-10-30T09:33:06.607Z,100589.22
2022-10-30T09:35:33.310Z,100585.44
2022-10-30T09:37:59.948Z,100579.97
2022-10-30T09:41:00.051Z,100580.25
2022-10-30T09:43:53.998Z,100581.28
2022-10-30T09:47:08.677Z,100586.06
2022-10-30T09:50:04.093Z,100587.41
2022-10-30T09:52:59.670Z,100584.88
2022-10-30T09:55:47.725Z,100581.06
2022-10-30T09:58:46.975Z,100584.94
2022-10-30T10:01:38.607Z,100581.84
2022-10-30T10:04:28.915Z,100581.06
2022-10-30T10:07:02.017Z,100585.53
2022-10-30T10:09:31.152Z,100585.28
2022-10-30T10:12:24.505Z,100581.00
2022-10-30T10:14:51.934Z,100581.38
2022-10-30T10:17:28.038Z,100578.75
2022-10-30T10:20:03.461Z,100574.47
2022-10-30T10:22:40.999Z,100584.59
2022-10-30T10:25:13.227Z,100580.88
2022-10-30T10:27:56.119Z,100573.25
2022-10-30T10:30:24.505Z,100571.06
2022-10-30T10:33:08.154Z,100563.13
2022-10-30T10:35:59.158Z,100562.84
2022-10-30T10:38:38.139Z,100558.13
2022-10-30T10:41:19.111Z,100562.22
2022-10-30T10:44:04.247Z,100557.97
2022-10-30T10:47:07.489Z,100551.16
2022-10-30T10:49:57.992Z,100555.59
2022-10-30T10:52:33.780Z,100551.53
2022-10-30T10:55:04.907Z,100543.91
2022-10-30T10:57:38.019Z,100552.84
2022-10-30T11:00:19.444Z,100548.88
2022-10-30T11:03:14.556Z,100550.03
2022-10-30T11:05:51.275Z,100543.25
2022-10-30T11:08:27.967Z,100545.63
2022-10-30T11:10:59.768Z,100541.63
2022-10-30T11:13:30.761Z,100537.00
2022-10-30T11:16:06.703Z,100541.63
2022-10-30T11:18:34.717Z,100533.03
2022-10-30T11:21:11.387Z,100540.41
2022-10-30T11:23:40.880Z,100538.97
2022-10-30T11:26:22.358Z,100526.84
2022-10-30T11:28:49.989Z,100530.75
2022-10-30T11:31:30.177Z,100533.50
2022-10-30T11:33:56.507Z,100531.47
2022-10-30T11:36:24.904Z,100519.78
2022-10-30T11:38:52.488Z,100520.75
2022-10-30T11:41:20.667Z,100519.72
2022-10-30T11:43:48.959Z,100518.47
2022-10-30T11:46:22.486Z,100516.03
2022-10-30T11:48:54.633Z,100516.53
2022-10-30T11:51:34.319Z,100512.88
2022-10-30T11:54:01.918Z,100512.13
2022-10-30T11:56:28.370Z,100512.19
2022-10-30T11:58:58.517Z,100518.59
2022-10-30T12:01:30.664Z,100511.31
2022-10-30T12:04:12.783Z,100506.69
2022-10-30T12:06:39.239Z,100505.63
2022-10-30T12:09:19.705Z,100504.56
2022-10-30T12:11:46.661Z,100497.81
2022-10-30T12:14:20.204Z,100486.56
2022-10-30T12:16:49.542Z,100493.16
2022-10-30T12:19:17.812Z,100489.25
2022-10-30T12:21:47.436Z,100494.84
2022-10-30T12:24:35.749Z,100485.06
2022-10-30T12:27:09.880Z,100478.81
2022-10-30T12:30:08.007Z,100479.59
2022-10-30T12:32:52.259Z,100482.28
2022-10-30T12:35:39.300Z,100481.03
2022-10-30T12:38:50.090Z,100480.53
2022-10-30T12:41:28.609Z,100472.72
2022-10-30T12:44:27.626Z,100474.88
2022-10-30T12:47:03.319Z,100470.38
2022-10-30T12:49:56.492Z,100468.84
2022-10-30T12:52:36.735Z,100469.25
2022-10-30T12:55:15.017Z,100463.38
2022-10-30T12:57:53.500Z,100456.84
2022-10-30T13:00:19.871Z,100455.72
2022-10-30T13:03:28.764Z,100455.63
2022-10-30T13:05:59.758Z,100457.78
2022-10-30T13:08:44.965Z,100452.97
2022-10-30T13:11:27.847Z,100451.91
2022-10-30T13:13:55.850Z,100439.28
2022-10-30T13:16:27.331Z,100444.13
2022-10-30T13:18:57.137Z,100441.66
2022-10-30T13:22:06.614Z,100438.16
2022-10-30T13:24:46.704Z,100434.63
2022-10-30T13:27:41.825Z,100430.78
2022-10-30T13:30:22.462Z,100428.50
2022-10-30T13:33:07.697Z,100434.47
2022-10-30T13:35:56.484Z,100429.94
2022-10-30T13:38:44.469Z,100439.88
2022-10-30T13:41:19.860Z,100438.34
2022-10-30T13:44:15.250Z,100441.63
2022-10-30T13:47:07.862Z,100432.31
2022-10-30T13:49:55.673Z,100424.84
2022-10-30T13:52:22.942Z,100431.00
2022-10-30T13:55:14.172Z,100437.09
2022-10-30T13:57:52.792Z,100441.91
2022-10-30T14:00:43.521Z,100442.59
2022-10-30T14:03:22.153Z,100438.56
2022-10-30T14:06:08.162Z,100437.84
2022-10-30T14:08:49.807Z,100436.97
2022-10-30T14:11:16.208Z,100438.53
2022-10-30T14:13:52.852Z,100438.31
2022-10-30T14:16:42.617Z,100433.97
2022-10-30T14:19:16.840Z,100434.63
2022-10-30T14:21:57.143Z,100434.88
2022-10-30T14:24:29.187Z,100430.09
2022-10-30T14:27:11.139Z,100430.63
2022-10-30T14:29:43.758Z,100431.72
2022-10-30T14:32:16.174Z,100441.81
2022-10-30T14:34:51.575Z,100431.16
2022-10-30T14:37:37.875Z,100435.34
2022-10-30T14:40:41.811Z,100435.34
2022-10-30T14:43:17.404Z,100436.75
2022-10-30T14:45:59.535Z,100434.41
2022-10-30T14:48:45.866Z,100425.94
2022-10-30T14:51:31.755Z,100439.69
2022-10-30T14:54:25.172Z,100438.03
2022-10-30T14:56:57.511Z,100441.50
2022-10-30T14:59:37.234Z,100433.28
2022-10-30T15:02:16.121Z,100434.16
2022-10-30T15:08:26.713Z,100438.50
2022-10-30T15:11:11.791Z,100446.06
2022-10-30T15:16:52.421Z,100445.25
2022-10-30T15:19:21.449Z,100448.03
2022-10-30T15:21:52.261Z,100449.91
2022-10-30T15:24:21.435Z,100450.44
2022-10-30T15:26:52.281Z,100459.59
2022-10-30T15:29:23.657Z,100456.69
2022-10-30T15:32:05.264Z,100454.75
2022-10-30T15:34:33.302Z,100462.63
2022-10-30T15:36:59.638Z,100458.69
2022-10-30T15:39:26.039Z,100456.03
2022-10-30T15:41:58.160Z,100455.72
2022-10-30T15:44:27.657Z,100450.53
2022-10-30T15:46:56.863Z,100459.00
2022-10-30T15:49:35.756Z,100459.56
2022-10-30T15:52:23.840Z,100455.88
2022-10-30T15:55:03.202Z,100460.56
2022-10-30T15:58:03.856Z,100459.06
2022-10-30T16:00:34.676Z,100458.84
2022-10-30T16:03:01.452Z,100463.88
2022-10-30T16:05:28.243Z,100461.19
2022-10-30T16:07:59.738Z,100458.03
2022-10-30T16:10:27.985Z,100461.69
2022-10-30T16:12:57.066Z,100470.03
2022-10-30T16:15:39.234Z,100466.88
2022-10-30T16:18:08.702Z,100468.81
2022-10-30T16:20:36.043Z,100478.38
2022-10-30T16:23:04.348Z,100472.78
2022-10-30T16:25:32.591Z,100468.84
2022-10-30T16:27:59.233Z,100476.59
2022-10-30T16:30:29.338Z,100475.03
2022-10-30T16:32:56.203Z,100483.16
2022-10-30T16:35:24.848Z,100476.56
2022-10-30T16:37:51.616Z,100487.81
2022-10-30T16:40:23.740Z,100491.31
2022-10-30T16:43:03.289Z,100495.22
2022-10-30T16:45:33.827Z,100492.69
2022-10-30T16:48:09.204Z,100492.09
2022-10-30T16:50:38.146Z,100500.72
2022-10-30T16:53:17.061Z,100503.38
2022-10-30T16:55:43.677Z,100500.38
2022-10-30T16:58:13.416Z,100512.09
2022-10-30T17:00:42.051Z,100506.81
2022-10-30T17:03:11.441Z,100505.94
2022-10-30T17:05:38.615Z,100515.22
2022-10-30T17:08:26.528Z,100513.22
2022-10-30T17:10:55.830Z,100519.28
2022-10-30T17:13:34.239Z,100530.63
2022-10-30T17:16:18.843Z,100530.75
2022-10-30T17:18:46.697Z,100532.25
2022-10-30T17:21:16.717Z,100540.81
2022-10-30T17:23:48.500Z,100545.31
2022-10-30T17:26:16.095Z,100549.00
2022-10-30T17:28:43.027Z,100556.09
2022-10-30T17:31:20.108Z,100557.69
2022-10-30T17:33:47.149Z,100557.78
2022-10-30T17:36:13.775Z,100560.88
2022-10-30T17:38:40.487Z,100567.00
2022-10-30T17:41:08.202Z,100569.75
2022-10-30T17:43:48.904Z,100568.69
2022-10-30T17:46:20.235Z,100569.25
2022-10-30T17:48:47.067Z,100580.47
2022-10-30T17:51:14.704Z,100576.97
2022-10-30T17:53:41.835Z,100578.03
2022-10-30T17:56:11.038Z,100576.59
2022-10-30T17:58:37.553Z,100583.34
2022-10-30T18:01:04.200Z,100577.84
2022-10-30T18:03:30.613Z,100583.28
2022-10-30T18:05:59.602Z,100583.19
2022-10-30T18:08:26.019Z,100585.00
2022-10-30T18:10:52.389Z,100595.09
2022-10-30T18:13:19.995Z,100590.53
2022-10-30T18:15:54.335Z,100591.59
2022-10-30T18:18:20.758Z,100601.53
2022-10-30T18:20:47.087Z,100602.78
2022-10-30T18:23:46.732Z,100603.25
2022-10-30T18:26:06.724Z,100612.47
2022-10-30T18:28:33.151Z,100607.22
2022-10-30T18:31:01.068Z,100606.69
2022-10-30T18:33:27.462Z,100618.09
2022-10-30T18:35:54.504Z,100616.81
2022-10-30T18:38:20.908Z,100618.63
2022-10-30T18:40:47.864Z,100627.63
2022-10-30T18:43:14.350Z,100623.50
2022-10-30T18:45:41.793Z,100622.78
2022-10-30T18:48:08.785Z,100626.69
2022-10-30T18:50:37.633Z,100626.69
2022-10-30T18:53:10.534Z,100626.50
2022-10-30T18:55:39.591Z,100632.16
2022-10-30T18:58:07.569Z,100625.84
2022-10-30T19:00:58.085Z,100624.00
2022-10-30T19:03:21.977Z,100626.00
2022-10-30T19:05:50.762Z,100627.47
2022-10-30T19:08:17.218Z,100628.84
2022-10-30T19:10:45.868Z,100637.00
2022-10-30T19:13:14.772Z,100637.84
2022-10-30T19:15:44.384Z,100634.75
2022-10-30T19:18:13.246Z,100633.59
2022-10-30T19:21:02.772Z,100645.59
2022-10-30T19:23:26.097Z,100641.88
2022-10-30T19:25:52.661Z,100640.56
2022-10-30T19:28:20.663Z,100647.13
2022-10-30T19:30:52.817Z,100651.84
2022-10-30T19:33:21.715Z,100648.13
2022-10-30T19:36:00.858Z,100644.41
2022-10-30T19:38:28.027Z,100652.72
2022-10-30T19:40:54.600Z,100661.41
2022-10-30T19:43:21.034Z,100658.50
2022-10-30T19:45:51.259Z,100656.59
2022-10-30T19:48:34.394Z,100654.22
2022-10-30T19:51:09.221Z,100649.09
2022-10-30T19:53:35.594Z,100654.50
2022-10-30T19:56:02.033Z,100665.47
2022-10-30T19:58:28.467Z,100663.69
2022-10-30T20:00:55.498Z,100669.34
2022-10-30T20:03:21.910Z,100675.78
2022-10-30T20:05:52.730Z,100676.84
2022-10-30T20:08:21.525Z,100682.50
2022-10-30T20:10:53.806Z,100674.13
2022-10-30T20:13:21.463Z,100679.78
2022-10-30T20:15:47.880Z,100679.72
2022-10-30T20:18:20.542Z,100682.69
2022-10-30T20:20:49.246Z,100680.78
2022-10-30T20:23:16.091Z,100682.06
2022-10-30T20:25:43.072Z,100687.34
2022-10-30T20:28:28.831Z,100683.97
2022-10-30T20:30:55.783Z,100691.63
2022-10-30T20:33:23.241Z,100693.44
2022-10-30T20:35:50.579Z,100690.13
2022-10-30T20:38:20.455Z,100698.41
2022-10-30T20:40:48.265Z,100699.72
2022-10-30T20:43:19.880Z,100701.06
2022-10-30T20:45:47.393Z,100699.00
2022-10-30T20:48:13.916Z,100695.66
2022-10-30T20:50:41.226Z,100701.59
2022-10-30T20:53:12.047Z,100699.13
2022-10-30T20:55:38.623Z,100702.91
2022-10-30T20:58:06.076Z,100700.19
2022-10-30T21:00:32.951Z,100703.88
2022-10-30T21:03:02.265Z,100696.94
2022-10-30T21:05:43.396Z,100694.44
2022-10-30T21:08:10.732Z,100692.94
2022-10-30T21:10:38.268Z,100703.47
2022-10-30T21:13:08.503Z,100698.31
2022-10-30T21:15:39.475Z,100696.31
2022-10-30T21:18:06.297Z,100699.28
2022-10-30T21:20:32.675Z,100700.41
2022-10-30T21:22:59.072Z,100705.09
2022-10-30T21:25:25.439Z,100706.81
2022-10-30T21:27:51.804Z,100711.09
2022-10-30T21:30:18.266Z,100704.22
2022-10-30T21:32:44.618Z,100704.44
2022-10-30T21:35:10.956Z,100706.69
2022-10-30T21:37:37.696Z,100707.56
2022-10-30T21:40:04.917Z,100701.72
2022-10-30T21:42:31.617Z,100708.97
2022-10-30T21:44:58.084Z,100708.88
2022-10-30T21:47:24.432Z,100708.31
2022-10-30T21:49:50.912Z,100713.38
2022-10-30T21:52:17.271Z,100714.59
2022-10-30T21:54:43.730Z,100710.88
2022-10-30T21:59:37.374Z,100708.31
2022-10-30T22:02:03.747Z,100699.97
2022-10-30T22:04:31.103Z,100702.69
2022-10-30T22:06:57.461Z,100704.91
2022-10-30T22:09:23.893Z,100699.75
2022-10-30T22:11:50.261Z,100698.69
2022-10-30T22:14:16.872Z,100695.28
2022-10-30T22:16:43.295Z,100703.00
2022-10-30T22:19:10.576Z,100704.03
2022-10-30T22:21:37.287Z,100696.97
2022-10-30T22:24:04.637Z,100693.34
2022-10-30T22:26:31.621Z,100700.41
2022-10-30T22:28:59.837Z,100702.22
2022-10-30T22:31:28.726Z,100700.81
2022-10-30T22:33:55.327Z,100699.31
2022-10-30T22:36:25.171Z,100694.66
2022-10-30T22:39:00.491Z,100695.94
2022-10-30T22:41:31.349Z,100701.44
2022-10-30T22:44:02.643Z,100697.97
2022-10-30T22:46:30.682Z,100705.09
2022-10-30T22:48:57.892Z,100706.75
2022-10-30T22:51:25.355Z,100703.38
2022-10-30T22:54:00.628Z,100706.19
2022-10-30T22:56:29.812Z,100708.66
2022-10-30T22:58:56.486Z,100717.84
2022-10-30T23:01:26.987Z,100706.53
2022-10-30T23:03:56.205Z,100710.91
2022-10-30T23:06:23.168Z,100709.97
2022-10-30T23:08:52.057Z,100704.41
2022-10-30T23:11:18.446Z,100704.13
2022-10-30T23:13:47.452Z,100712.97
2022-10-30T23:16:17.273Z,100711.97
2022-10-30T23:18:44.375Z,100711.78
2022-10-30T23:21:17.890Z,100710.19
2022-10-30T23:23:44.831Z,100710.69
2022-10-30T23:26:23.096Z,100712.31
2022-10-30T23:28:51.861Z,100716.06
2022-10-30T23:31:22.145Z,100705.38
2022-10-30T23:33:50.075Z,100711.72
2022-10-30T23:36:16.894Z,100705.16
2022-10-30T23:38:43.479Z,100703.38
2022-10-30T23:41:10.431Z,100709.78
2022-10-30T23:43:36.768Z,100715.06
2022-10-30T23:46:03.143Z,100716.34
2022-10-30T23:48:29.498Z,100722.16
2022-10-30T23:50:55.829Z,100722.75
2022-10-30T23:53:22.180Z,100732.31
2022-10-30T23:55:55.317Z,100728.97
2022-10-30T23:58:21.749Z,100722.03
